createdAt,value
2022-11-29T00:01:40.362Z,131.45
2022-11-29T00:04:07.710Z,106.88
2022-11-29T00:06:36.173Z,93.38
2022-11-29T00:09:11.608Z,107.38
2022-11-29T00:11:59.879Z,71.18
2022-11-29T00:14:29.083Z,79.20
2022-11-29T00:17:02.432Z,148.23
2022-11-29T00:19:35.524Z,97.35
2022-11-29T00:22:04.431Z,143.05
2022-11-29T00:24:32.562Z,159.48
2022-11-29T00:27:00.890Z,221.40
2022-11-29T00:29:29.939Z,121.65
2022-11-29T00:31:57.220Z,115.40
2022-11-29T00:34:24.579Z,91.43
2022-11-29T00:36:51.991Z,99.68
2022-11-29T00:39:19.481Z,78.63
2022-11-29T00:41:46.690Z,91.20
2022-11-29T00:44:19.600Z,87.18
2022-11-29T00:46:48.630Z,88.22
2022-11-29T00:49:16.639Z,116.75
2022-11-29T00:51:43.918Z,76.15
2022-11-29T00:54:11.096Z,125.07
2022-11-29T00:56:38.355Z,108.13
2022-11-29T00:59:05.521Z,86.97
2022-11-29T01:01:32.748Z,95.90
2022-11-29T01:04:02.423Z,93.55
2022-11-29T01:06:29.571Z,119.55
2022-11-29T01:08:56.823Z,76.43
2022-11-29T01:11:27.542Z,110.05
2022-11-29T01:14:00.298Z,74.40
2022-11-29T01:16:30.621Z,102.45
2022-11-29T01:18:57.867Z,100.28
2022-11-29T01:21:25.400Z,83.75
2022-11-29T01:23:54.234Z,78.50
2022-11-29T01:26:27.154Z,66.85
2022-11-29T01:28:57.040Z,73.38
2022-11-29T01:31:31.134Z,102.63
2022-11-29T01:34:02.585Z,92.80
2022-11-29T01:36:30.624Z,81.82
2022-11-29T01:39:01.661Z,85.47
2022-11-29T01:41:33.527Z,69.13
2022-11-29T01:44:07.412Z,64.60
2022-11-29T01:46:42.944Z,59.35
2022-11-29T01:49:24.285Z,64.32
2022-11-29T01:52:15.037Z,87.97
2022-11-29T01:54:50.883Z,69.18
2022-11-29T01:57:19.748Z,48.97
2022-11-29T01:59:54.521Z,70.63
2022-11-29T02:02:36.839Z,64.50
2022-11-29T02:05:05.762Z,111.55
2022-11-29T02:07:33.925Z,160.70
2022-11-29T02:10:02.980Z,166.68
2022-11-29T02:13:16.587Z,152.00
2022-11-29T02:16:05.063Z,148.35
2022-11-29T02:19:11.581Z,293.60
2022-11-29T02:22:15.202Z,251.15
2022-11-29T02:25:19.786Z,211.25
2022-11-29T02:28:46.949Z,142.20
2022-11-29T02:32:01.615Z,151.23
2022-11-29T02:34:54.443Z,180.23
2022-11-29T02:38:27.068Z,168.65
2022-11-29T02:41:42.523Z,549.42
2022-11-29T02:45:08.678Z,149.90
2022-11-29T02:48:05.510Z,269.77
2022-11-29T02:51:11.403Z,209.30
2022-11-29T02:54:16.650Z,193.95
2022-11-29T02:56:58.224Z,296.27
2022-11-29T02:59:51.289Z,331.80
2022-11-29T03:03:24.189Z,114.75
2022-11-29T03:06:33.949Z,223.95
2022-11-29T03:09:32.215Z,190.82
2022-11-29T03:12:41.708Z,188.98
2022-11-29T03:15:33.442Z,214.95
2022-11-29T03:18:55.970Z,187.85
2022-11-29T03:21:44.409Z,153.82
2022-11-29T03:24:46.041Z,125.00
2022-11-29T03:27:31.316Z,198.27
2022-11-29T03:30:05.666Z,104.57
2022-11-29T03:32:53.621Z,108.88
2022-11-29T03:35:47.699Z,97.30
2022-11-29T03:38:43.964Z,74.72
2022-11-29T03:41:51.936Z,130.30
2022-11-29T03:44:33.522Z,55.90
2022-11-29T03:47:19.819Z,80.43
2022-11-29T03:50:13.318Z,62.55
2022-11-29T03:53:04.039Z,93.97
2022-11-29T03:55:54.056Z,102.55
2022-11-29T03:59:02.672Z,82.97
2022-11-29T04:02:15.007Z,81.13
2022-11-29T04:05:22.397Z,109.68
2022-11-29T04:08:17.670Z,87.95
2022-11-29T04:11:18.697Z,93.22
2022-11-29T04:14:14.550Z,101.50
2022-11-29T04:16:59.836Z,92.53
2022-11-29T04:20:07.885Z,107.72
2022-11-29T04:23:05.782Z,131.15
2022-11-29T04:25:41.758Z,116.88
2022-11-29T04:29:14.457Z,139.25
2022-11-29T04:32:10.406Z,169.75
2022-11-29T04:35:36.857Z,83.05
2022-11-29T04:38:35.484Z,127.22
2022-11-29T04:41:46.308Z,117.65
2022-11-29T04:44:50.805Z,140.65
2022-11-29T04:48:24.879Z,85.97
2022-11-29T04:52:05.706Z,170.02
2022-11-29T04:55:31.206Z,343.33
2022-11-29T04:58:41.203Z,355.70
2022-11-29T05:02:14.071Z,131.75
2022-11-29T05:04:52.874Z,177.20
2022-11-29T05:08:25.243Z,262.77
2022-11-29T05:11:35.084Z,182.38
2022-11-29T05:14:29.348Z,416.75
2022-11-29T05:17:35.974Z,217.73
2022-11-29T05:21:35.078Z,235.68
2022-11-29T05:24:47.590Z,213.77
2022-11-29T05:27:40.819Z,153.90
2022-11-29T05:30:25.580Z,184.73
2022-11-29T05:33:16.458Z,168.02
2022-11-29T05:36:01.704Z,189.95
2022-11-29T05:38:55.361Z,207.35
2022-11-29T05:42:02.763Z,220.48
2022-11-29T05:44:47.606Z,264.85
2022-11-29T05:47:35.845Z,214.02
2022-11-29T05:50:09.015Z,187.55
2022-11-29T05:53:29.274Z,223.73
2022-11-29T05:56:34.351Z,167.00
2022-11-29T05:59:15.403Z,244.18
2022-11-29T06:02:32.788Z,198.75
2022-11-29T06:05:22.932Z,177.38
2022-11-29T06:08:50.605Z,335.83
2022-11-29T06:11:53.619Z,227.93
2022-11-29T06:14:38.288Z,252.48
2022-11-29T06:17:56.028Z,325.88
2022-11-29T06:20:43.490Z,237.38
2022-11-29T06:23:58.831Z,135.30
2022-11-29T06:27:05.864Z,218.48
2022-11-29T06:30:00.212Z,165.88
2022-11-29T06:33:07.965Z,203.32
2022-11-29T06:36:22.828Z,211.70
2022-11-29T06:38:50.419Z,124.75
2022-11-29T06:41:24.879Z,200.68
2022-11-29T06:43:52.743Z,197.52
2022-11-29T06:47:05.118Z,252.73
2022-11-29T06:49:53.436Z,291.77
2022-11-29T06:52:43.002Z,216.18
2022-11-29T06:55:45.722Z,208.30
2022-11-29T06:58:48.981Z,171.35
2022-11-29T07:01:57.272Z,255.38
2022-11-29T07:05:08.611Z,167.07
2022-11-29T07:07:36.870Z,163.40
2022-11-29T07:10:09.429Z,186.25
2022-11-29T07:12:41.182Z,156.98
2022-11-29T07:15:20.703Z,172.40
2022-11-29T07:18:57.209Z,176.68
2022-11-29T07:22:04.211Z,206.32
2022-11-29T07:25:13.520Z,171.43
2022-11-29T07:28:01.134Z,177.50
2022-11-29T07:31:06.079Z,162.07
2022-11-29T07:34:31.786Z,181.43
2022-11-29T07:37:30.395Z,186.02
2022-11-29T07:40:40.284Z,136.65
2022-11-29T07:44:03.975Z,179.20
2022-11-29T07:46:31.202Z,152.68
2022-11-29T07:48:58.467Z,138.68
2022-11-29T07:51:26.114Z,143.40
2022-11-29T07:53:53.932Z,199.93
2022-11-29T07:56:21.153Z,204.52
2022-11-29T07:58:48.554Z,195.43
2022-11-29T08:01:15.813Z,227.60
2022-11-29T08:03:43.147Z,212.02
2022-11-29T08:06:10.611Z,174.23
2022-11-29T08:08:43.802Z,246.65
2022-11-29T08:11:15.377Z,193.18
2022-11-29T08:13:42.603Z,205.77
2022-11-29T08:16:15.922Z,218.82
2022-11-29T08:18:43.372Z,211.65
2022-11-29T08:21:10.600Z,235.32
2022-11-29T08:23:37.763Z,223.85
2022-11-29T08:26:06.455Z,226.45
2022-11-29T08:28:33.950Z,257.02
2022-11-29T08:31:09.535Z,245.95
2022-11-29T08:33:41.385Z,243.00
2022-11-29T08:36:13.409Z,189.02
2022-11-29T08:38:41.129Z,190.80
2022-11-29T08:41:12.946Z,232.35
2022-11-29T08:43:41.090Z,175.85
2022-11-29T08:46:11.467Z,176.85
2022-11-29T08:48:42.380Z,264.45
2022-11-29T08:51:09.681Z,175.48
2022-11-29T08:53:43.163Z,214.18
2022-11-29T08:59:06.134Z,182.82
2022-11-29T09:01:33.625Z,184.43
2022-11-29T09:04:03.098Z,158.85
2022-11-29T09:06:42.882Z,230.77
2022-11-29T09:09:10.318Z,180.13
2022-11-29T09:11:37.621Z,171.18
2022-11-29T09:14:11.661Z,159.73
2022-11-29T09:16:39.027Z,247.10
2022-11-29T09:19:07.667Z,143.13
2022-11-29T09:21:36.798Z,226.77
2022-11-29T09:24:06.496Z,228.18
2022-11-29T09:26:38.058Z,147.65
2022-11-29T09:29:07.020Z,167.07
2022-11-29T09:31:35.513Z,151.93
2022-11-29T09:34:03.065Z,141.48
2022-11-29T09:36:31.442Z,160.85
2022-11-29T09:39:02.886Z,113.40
2022-11-29T09:42:07.101Z,135.57
2022-11-29T09:45:10.786Z,108.32
2022-11-29T09:48:14.212Z,124.45
2022-11-29T09:51:12.527Z,112.55
2022-11-29T09:54:01.756Z,97.10
2022-11-29T09:56:54.507Z,119.15
2022-11-29T09:59:35.938Z,117.22
2022-11-29T10:02:49.967Z,134.35
2022-11-29T10:05:51.546Z,75.00
2022-11-29T10:08:42.012Z,110.43
2022-11-29T10:11:39.762Z,102.10
2022-11-29T10:14:26.496Z,121.97
2022-11-29T10:17:17.325Z,128.30
2022-11-29T10:19:52.935Z,81.72
2022-11-29T10:22:53.334Z,109.00
2022-11-29T10:25:54.270Z,89.50
2022-11-29T10:28:33.519Z,100.47
2022-11-29T10:31:39.275Z,85.05
2022-11-29T10:34:21.416Z,95.10
2022-11-29T10:37:02.272Z,65.60
2022-11-29T10:39:58.670Z,84.68
2022-11-29T10:42:47.491Z,53.25
2022-11-29T10:45:29.426Z,67.35
2022-11-29T10:48:08.055Z,94.45
2022-11-29T10:50:37.557Z,53.80
2022-11-29T10:53:16.630Z,58.97
2022-11-29T10:55:53.581Z,178.18
2022-11-29T10:58:28.263Z,168.40
2022-11-29T11:01:08.924Z,135.18
2022-11-29T11:03:54.400Z,134.98
2022-11-29T11:06:45.852Z,92.13
2022-11-29T11:09:50.373Z,92.68
2022-11-29T11:12:26.251Z,110.22
2022-11-29T11:15:30.175Z,107.30
2022-11-29T11:18:06.511Z,57.92
2022-11-29T11:20:41.702Z,106.95
2022-11-29T11:23:42.340Z,143.48
2022-11-29T11:26:14.690Z,90.78
2022-11-29T11:29:03.207Z,178.10
2022-11-29T11:31:40.651Z,83.13
2022-11-29T11:34:36.139Z,111.50
2022-11-29T11:37:15.364Z,82.20
2022-11-29T11:39:45.477Z,50.08
2022-11-29T11:42:39.544Z,56.92
2022-11-29T11:45:15.253Z,111.20
2022-11-29T11:48:01.988Z,74.78
2022-11-29T11:50:43.879Z,73.70
2022-11-29T11:53:35.864Z,54.17
2022-11-29T11:56:13.552Z,50.13
2022-11-29T11:59:01.607Z,58.72
2022-11-29T12:01:38.119Z,64.25
2022-11-29T12:04:37.227Z,49.17
2022-11-29T12:07:51.833Z,57.38
2022-11-29T12:10:27.194Z,103.15
2022-11-29T12:12:57.570Z,45.65
2022-11-29T12:15:50.279Z,45.10
2022-11-29T12:18:47.697Z,42.80
2022-11-29T12:21:24.285Z,43.10
2022-11-29T12:24:06.559Z,36.20
2022-11-29T12:26:58.327Z,40.85
2022-11-29T12:29:33.469Z,37.03
2022-11-29T12:32:54.981Z,43.30
2022-11-29T12:35:37.257Z,34.33
2022-11-29T12:38:33.668Z,50.95
2022-11-29T12:41:37.373Z,44.45
2022-11-29T12:44:37.821Z,39.22
2022-11-29T12:48:05.860Z,38.05
2022-11-29T12:51:14.450Z,38.83
2022-11-29T12:54:34.620Z,40.58
2022-11-29T12:57:48.403Z,54.47
2022-11-29T13:00:19.948Z,42.45
2022-11-29T13:03:32.785Z,50.55
2022-11-29T13:06:13.093Z,53.78
2022-11-29T13:09:06.032Z,60.50
2022-11-29T13:12:00.123Z,53.88
2022-11-29T13:15:13.657Z,61.42
2022-11-29T13:18:25.617Z,58.40
2022-11-29T13:21:13.972Z,45.75
2022-11-29T13:24:16.860Z,42.47
2022-11-29T13:26:47.634Z,48.22
2022-11-29T13:29:19.923Z,58.78
2022-11-29T13:31:48.179Z,57.00
2022-11-29T13:34:39.519Z,56.42
2022-11-29T13:38:01.137Z,61.20
2022-11-29T13:40:43.044Z,56.38
2022-11-29T13:43:40.913Z,63.55
2022-11-29T13:46:52.713Z,56.45
2022-11-29T13:50:26.743Z,55.38
2022-11-29T13:53:30.693Z,59.15
2022-11-29T13:56:01.889Z,60.28
2022-11-29T13:58:29.093Z,59.95
2022-11-29T14:01:05.524Z,58.13
2022-11-29T14:04:14.714Z,60.58
2022-11-29T14:06:46.003Z,56.08
2022-11-29T14:09:43.431Z,59.97
2022-11-29T14:12:41.754Z,55.85
2022-11-29T14:15:16.856Z,55.20
2022-11-29T14:18:08.898Z,53.35
2022-11-29T14:20:57.391Z,58.72
2022-11-29T14:23:38.973Z,64.65
2022-11-29T14:26:06.111Z,62.25
2022-11-29T14:28:38.704Z,62.33
2022-11-29T14:31:09.689Z,62.85
2022-11-29T14:33:57.939Z,68.93
2022-11-29T14:36:54.767Z,65.47
2022-11-29T14:39:42.147Z,74.32
2022-11-29T14:42:24.447Z,72.70
2022-11-29T14:45:06.301Z,79.38
2022-11-29T14:47:49.108Z,95.40
2022-11-29T14:50:36.528Z,79.93
2022-11-29T14:53:33.506Z,93.05
2022-11-29T14:56:32.038Z,87.68
2022-11-29T14:59:51.489Z,88.60
2022-11-29T15:03:09.258Z,82.85
2022-11-29T15:05:45.039Z,108.50
2022-11-29T15:08:32.307Z,135.63
2022-11-29T15:11:49.499Z,126.15
2022-11-29T15:14:45.786Z,94.97
2022-11-29T15:17:46.834Z,90.53
2022-11-29T15:20:50.703Z,94.88
2022-11-29T15:23:19.780Z,106.85
2022-11-29T15:26:00.522Z,98.72
2022-11-29T15:28:30.146Z,90.32
2022-11-29T15:31:13.402Z,99.15
2022-11-29T15:33:45.045Z,79.15
2022-11-29T15:36:24.305Z,86.13
2022-11-29T15:38:59.129Z,87.15
2022-11-29T15:41:35.624Z,69.75
2022-11-29T15:44:07.507Z,75.07
2022-11-29T15:46:36.112Z,90.60
2022-11-29T15:49:35.527Z,87.95
2022-11-29T15:52:14.443Z,77.38
2022-11-29T15:55:03.397Z,73.82
2022-11-29T15:57:43.054Z,70.45
2022-11-29T16:00:23.128Z,58.75
2022-11-29T16:03:06.003Z,67.55
2022-11-29T16:05:38.732Z,80.43
2022-11-29T16:08:22.580Z,67.60
2022-11-29T16:10:53.186Z,67.22
2022-11-29T16:13:39.148Z,71.35
2022-11-29T16:16:13.260Z,75.70
2022-11-29T16:18:45.723Z,75.78
2022-11-29T16:21:32.544Z,75.40
2022-11-29T16:24:21.750Z,72.88
2022-11-29T16:26:51.085Z,75.70
2022-11-29T16:29:33.853Z,76.05
2022-11-29T16:32:31.720Z,68.05
2022-11-29T16:35:23.633Z,80.97
2022-11-29T16:37:51.635Z,72.93
2022-11-29T16:40:35.385Z,78.68
2022-11-29T16:43:47.465Z,84.43
2022-11-29T16:46:20.717Z,79.00
2022-11-29T16:48:51.200Z,81.88
2022-11-29T16:51:39.851Z,65.22
2022-11-29T16:54:27.933Z,61.15
2022-11-29T16:56:57.236Z,53.47
2022-11-29T16:59:28.369Z,63.80
2022-11-29T17:01:57.137Z,66.43
2022-11-29T17:04:25.723Z,67.15
2022-11-29T17:06:57.417Z,62.42
2022-11-29T17:09:32.511Z,66.90
2022-11-29T17:12:01.991Z,64.05
2022-11-29T17:14:30.202Z,62.17
2022-11-29T17:17:02.181Z,60.63
2022-11-29T17:19:30.694Z,61.00
2022-11-29T17:21:58.697Z,67.70
2022-11-29T17:24:26.125Z,63.65
2022-11-29T17:26:53.311Z,62.65
2022-11-29T17:29:20.603Z,62.85
2022-11-29T17:31:50.473Z,61.30
2022-11-29T17:34:17.954Z,68.88
2022-11-29T17:36:46.438Z,66.60
2022-11-29T17:39:15.792Z,62.38
2022-11-29T17:41:43.105Z,62.72
2022-11-29T17:44:10.250Z,64.90
2022-11-29T17:46:37.937Z,63.53
2022-11-29T17:49:09.541Z,62.53
2022-11-29T17:51:55.491Z,65.45
2022-11-29T17:54:23.410Z,59.63
2022-11-29T17:56:51.890Z,64.13
2022-11-29T17:59:19.455Z,64.68
2022-11-29T18:01:49.626Z,62.42
2022-11-29T18:04:17.107Z,63.35
2022-11-29T18:06:49.668Z,67.70
2022-11-29T18:09:19.452Z,60.35
2022-11-29T18:11:50.168Z,67.18
2022-11-29T18:14:24.213Z,60.20
2022-11-29T18:16:52.067Z,58.17
2022-11-29T18:19:22.770Z,70.15
2022-11-29T18:21:51.260Z,71.63
2022-11-29T18:24:19.393Z,75.85
2022-11-29T18:26:47.115Z,67.65
2022-11-29T18:29:14.842Z,74.13
2022-11-29T18:31:46.053Z,71.10
2022-11-29T18:34:14.973Z,70.82
2022-11-29T18:36:51.029Z,60.83
2022-11-29T18:39:20.222Z,60.92
2022-11-29T18:41:50.335Z,71.00
2022-11-29T18:44:29.505Z,72.93
2022-11-29T18:46:57.742Z,82.28
2022-11-29T18:49:24.947Z,69.55
2022-11-29T18:51:52.188Z,63.30
2022-11-29T18:54:19.597Z,73.45
2022-11-29T18:56:46.902Z,72.40
2022-11-29T18:59:17.821Z,75.22
2022-11-29T19:01:48.314Z,84.65
2022-11-29T19:04:21.377Z,75.38
2022-11-29T19:06:49.405Z,79.03
2022-11-29T19:09:22.219Z,92.30
2022-11-29T19:11:50.605Z,83.60
2022-11-29T19:14:19.380Z,77.30
2022-11-29T19:16:49.399Z,75.68
2022-11-29T19:19:18.897Z,85.68
2022-11-29T19:21:46.107Z,86.97
2022-11-29T19:24:17.578Z,82.60
2022-11-29T19:26:47.973Z,85.40
2022-11-29T19:29:16.192Z,95.93
2022-11-29T19:31:43.580Z,89.53
2022-11-29T19:34:11.331Z,86.88
2022-11-29T19:36:43.294Z,103.03
2022-11-29T19:39:17.183Z,101.18
2022-11-29T19:41:47.729Z,116.45
2022-11-29T19:44:15.583Z,107.63
2022-11-29T19:46:48.756Z,125.72
2022-11-29T19:49:16.194Z,134.80
2022-11-29T19:51:43.763Z,135.77
2022-11-29T19:54:12.034Z,165.80
2022-11-29T19:56:39.982Z,120.25
2022-11-29T19:59:08.758Z,106.90
2022-11-29T20:01:41.274Z,132.57
2022-11-29T20:04:13.721Z,116.80
2022-11-29T20:06:42.874Z,115.00
2022-11-29T20:09:13.472Z,127.57
2022-11-29T20:11:41.742Z,117.18
2022-11-29T20:14:12.838Z,89.65
2022-11-29T20:16:40.813Z,92.97
2022-11-29T20:19:14.158Z,108.30
2022-11-29T20:21:48.830Z,129.98
2022-11-29T20:24:17.787Z,107.25
2022-11-29T20:26:49.014Z,87.50
2022-11-29T20:29:17.120Z,126.97
2022-11-29T20:31:50.217Z,117.63
2022-11-29T20:34:20.094Z,96.07
2022-11-29T20:37:36.783Z,98.93
2022-11-29T20:40:19.355Z,115.75
2022-11-29T20:43:37.823Z,86.78
2022-11-29T20:46:05.599Z,120.82
2022-11-29T20:48:33.280Z,98.70
2022-11-29T20:51:02.684Z,164.73
2022-11-29T20:53:40.311Z,124.40
2022-11-29T20:56:09.804Z,154.57
2022-11-29T20:58:38.485Z,126.97
2022-11-29T21:01:07.427Z,112.60
2022-11-29T21:03:34.823Z,149.60
2022-11-29T21:06:05.864Z,115.03
2022-11-29T21:08:34.729Z,146.25
2022-11-29T21:11:07.426Z,120.43
2022-11-29T21:13:37.215Z,149.13
2022-11-29T21:16:05.471Z,183.75
2022-11-29T21:18:33.911Z,137.55
2022-11-29T21:21:54.016Z,172.70
2022-11-29T21:25:05.309Z,175.02
2022-11-29T21:27:35.356Z,150.20
2022-11-29T21:30:18.971Z,121.47
2022-11-29T21:32:47.577Z,131.20
2022-11-29T21:35:16.293Z,154.40
2022-11-29T21:37:45.526Z,132.75
2022-11-29T21:40:14.638Z,106.15
2022-11-29T21:42:42.267Z,103.40
2022-11-29T21:45:15.247Z,104.20
2022-11-29T21:47:44.615Z,108.50
2022-11-29T21:50:13.757Z,116.60
2022-11-29T21:52:41.396Z,114.18
2022-11-29T21:55:09.334Z,113.45
2022-11-29T21:57:37.616Z,112.10
2022-11-29T22:00:06.972Z,102.25
2022-11-29T22:02:34.281Z,102.20
2022-11-29T22:05:01.565Z,106.32
2022-11-29T22:07:28.766Z,108.25
2022-11-29T22:09:55.981Z,108.90
2022-11-29T22:12:38.282Z,84.82
2022-11-29T22:15:06.293Z,92.20
2022-11-29T22:17:33.464Z,96.25
2022-11-29T22:20:00.583Z,93.32
2022-11-29T22:22:28.337Z,93.75
2022-11-29T22:24:55.597Z,104.88
2022-11-29T22:27:22.755Z,91.15
2022-11-29T22:29:49.982Z,97.35
2022-11-29T22:32:17.174Z,100.18
2022-11-29T22:34:44.853Z,101.10
2022-11-29T22:37:12.527Z,97.70
2022-11-29T22:39:39.689Z,94.40
2022-11-29T22:42:07.756Z,114.80
2022-11-29T22:44:35.065Z,98.55
2022-11-29T22:47:02.376Z,104.28
2022-11-29T22:49:30.075Z,112.65
2022-11-29T22:51:57.244Z,98.60
2022-11-29T22:54:24.557Z,104.13
2022-11-29T22:56:52.424Z,98.72
2022-11-29T22:59:19.616Z,93.53
2022-11-29T23:01:47.095Z,106.00
2022-11-29T23:04:14.418Z,92.05
2022-11-29T23:06:45.979Z,87.53
2022-11-29T23:09:22.085Z,79.22
2022-11-29T23:11:56.111Z,102.13
2022-11-29T23:14:24.437Z,75.65
2022-11-29T23:16:52.702Z,88.43
2022-11-29T23:19:20.712Z,77.70
2022-11-29T23:21:48.087Z,64.72
2022-11-29T23:24:16.215Z,69.70
2022-11-29T23:26:47.305Z,75.35
2022-11-29T23:29:18.837Z,61.75
2022-11-29T23:31:47.707Z,59.55
2022-11-29T23:34:15.559Z,72.55
2022-11-29T23:36:44.804Z,61.20
2022-11-29T23:39:15.541Z,60.67
2022-11-29T23:41:43.756Z,54.35
2022-11-29T23:44:11.116Z,53.45
2022-11-29T23:46:38.394Z,56.17
2022-11-29T23:49:05.561Z,56.60
2022-11-29T23:51:33.170Z,58.00
2022-11-29T23:54:00.383Z,57.47
2022-11-29T23:56:27.971Z,51.08
2022-11-29T23:58:55.350Z,61.08
